Wendover, Kentucky
Current Conditions -  °F | °C
As of 3:35 PM on Monday 26 Jan 2015 (Local Time) from KI35 Reporting Station
Overcast Overcast  
Wind Chill: 22°   Ceiling: 1000
Heat Index: 28°   Visibility: 5mi
Dew Point: 25°   Wind: 6mph
Humidity: 86%   Direction: 260°W
Pressure: 29.83"   Gusts: NA
Location:  37.13°N, 83.36°W
Report Text: KI35 262035Z AUTO 26005KT 5SM OVC010 M02/M04 A2983 RMK AO1
Loading
Personal Weather Stations






























Interactive Weather Map New forecast layout! Learn more

10-Day Weather Forecast

Advertisements
Track Severe Weather on mobile